Strona główna
METAR-TAF:

METAR-TAF

Lotnisko :

Gwinner, Dakota Północna, Stany Zjednoczone

Szerokość geograficzna: 46-13-07N, Długość geograficzna: 097-38-37W, wysokość: 386 m

Aktualna obserwacja pogody

Raport powstał 23 minut temu, godzina 16:35 UTC
Wiatr 13 kt od zachód w porywach dochodzący do 18 kt
Temperatura 20°C
Wilgotność 73%
Ciśnienie 1012 hPa
Widzialność: 16.1 km

METAR: KGWR 161635Z AUTO 27013G18KT 10SM 20/15 A2988 RMK A01

czas: 11:58 (16:58 UTC)


TAF: brakujący

Obserwacja i prognoza pogody dla ponad 4000 lotnisk (raport METAR i TAF).

Dostępne stacje oznaczono żółtymi i czerwonymi punktami na mapie.

Najedź kursorem aby zobaczyć nazwę stacji.

Kliknij aby zobaczyć obserwacje i prognozy pogody.

Aby zmienić mapę: kliknij na zielony przycisk z czarnym krzyżykiem, aby powiększyć; na zielony przycisk z myślnikiem, aby pomniejszyć; na zielone strzałki, aby przejść do map sąsiednich.


METAR-TAF: